Athens, Tennessee
Current Conditions -  °F | °C
As of 4:15 AM on Sunday 21 Dec 2014 (Local Time) from KMMI Reporting Station
Broken Clouds Broken Clouds  
Wind Chill: -2°   Ceiling: 4100
Heat Index: -2°   Visibility: 10mi
Dew Point: -2°   Wind: 0mph
Humidity: 100%   Direction: NA
Pressure: 30.23"   Gusts: NA
Location:  35.44°N, 84.59°W
Report Text: KMMI 210915Z AUTO 00000KT 10SM BKN041 M02/M02 A3023 RMK
Loading
Personal Weather Stations






























Interactive Weather Map New forecast layout! Learn more

10-Day Weather Forecast

Advertisements
Track Severe Weather on mobile